Time;durP1;ratioP1;P1;durP2;ratioP2;P2;SDS_P1;SDS_P2;PMS_P1;PMS_P2;Temp;Humidity;BMP_temperature;BMP_pressure;BME280_temperature;BME280_humidity;BME280_pressure;Samples;Min_cycle;Max_cycle;Signal;HPM_P1;HPM_P2
2023/05/18 00:00:35;;;;;;;41.53;20.77;;;;;;;8.05;100.00;96841.75;5008242;28;20033;-90
2023/05/18 00:03:02;;;;;;;17.27;9.50;;;;;;;7.75;100.00;96830.25;5039902;28;20037;-89
2023/05/18 00:05:32;;;;;;;12.40;5.93;;;;;;;7.67;100.00;96837.06;5005823;28;20038;-89
2023/05/18 00:08:04;;;;;;;13.50;7.30;;;;;;;7.50;100.00;96838.44;5007596;28;20033;-89
2023/05/18 00:10:30;;;;;;;11.67;6.57;;;;;;;7.63;100.00;96833.03;5013707;28;20021;-90
2023/05/18 00:13:07;;;;;;;13.23;6.93;;;;;;;7.47;100.00;96833.47;5006225;28;20030;-90
2023/05/18 00:15:33;;;;;;;12.93;6.63;;;;;;;7.71;100.00;96828.84;4990935;28;20127;-90
2023/05/18 00:17:58;;;;;;;15.57;6.60;;;;;;;7.51;100.00;96837.47;4983060;28;20037;-89
2023/05/18 00:20:25;;;;;;;11.60;6.33;;;;;;;7.47;100.00;96836.06;5001922;28;20029;-90
2023/05/18 00:22:51;;;;;;;12.23;7.00;;;;;;;7.33;100.00;96830.19;4999019;28;20033;-89
2023/05/18 00:25:17;;;;;;;12.10;6.70;;;;;;;7.25;100.00;96832.59;4990486;28;20097;-90
2023/05/18 00:27:43;;;;;;;14.33;6.83;;;;;;;7.16;100.00;96833.34;4993705;28;20468;-90
2023/05/18 00:30:09;;;;;;;16.20;7.30;;;;;;;7.18;100.00;96830.59;4990897;28;20447;-89
2023/05/18 00:32:34;;;;;;;14.43;6.37;;;;;;;7.46;100.00;96830.03;5005819;28;20033;-90
2023/05/18 00:35:00;;;;;;;13.63;6.37;;;;;;;7.26;100.00;96826.41;4981443;28;20013;-89
2023/05/18 00:37:26;;;;;;;10.10;5.70;;;;;;;7.12;100.00;96829.31;4986087;28;20033;-89
2023/05/18 00:39:51;;;;;;;12.20;5.87;;;;;;;7.27;100.00;96835.91;4985517;28;20026;-90
2023/05/18 00:42:17;;;;;;;14.33;5.90;;;;;;;7.24;100.00;96827.47;5002726;28;20373;-90
2023/05/18 00:44:42;;;;;;;15.60;6.20;;;;;;;7.43;100.00;96827.66;5007774;28;20017;-90
2023/05/18 00:47:08;;;;;;;17.87;5.97;;;;;;;7.23;100.00;96823.19;5003772;28;20025;-90
2023/05/18 00:49:41;;;;;;;16.67;6.07;;;;;;;7.27;100.00;96817.59;5021701;28;20036;-90
2023/05/18 00:52:07;;;;;;;;;;;;;;;7.33;100.00;96824.13;5000183;28;20071;-89
2023/05/18 00:54:34;;;;;;;9.63;5.50;;;;;;;7.10;100.00;96818.13;5014163;28;19909;-89
2023/05/18 00:57:01;;;;;;;10.50;6.13;;;;;;;7.04;100.00;96821.22;5001867;28;20124;-90
2023/05/18 00:59:28;;;;;;;13.67;6.40;;;;;;;7.02;100.00;96823.16;4989581;28;20018;-90
2023/05/18 01:01:57;;;;;;;14.90;6.03;;;;;;;7.28;100.00;96816.66;5004207;28;20257;-89
2023/05/18 01:04:25;;;;;;;8.77;5.60;;;;;;;7.28;100.00;96810.59;4990123;28;20021;-90
2023/05/18 01:06:55;;;;;;;9.30;5.27;;;;;;;7.21;100.00;96819.88;4996132;28;20763;-90
2023/05/18 01:09:22;;;;;;;10.87;4.80;;;;;;;7.03;100.00;96811.72;5000087;28;20100;-90
2023/05/18 01:11:48;;;;;;;8.37;5.17;;;;;;;7.02;100.00;96813.53;4987176;28;20025;-90
2023/05/18 01:14:32;;;;;;;12.70;5.90;;;;;;;7.17;100.00;96814.06;5012429;28;20079;-89
2023/05/18 01:17:09;;;;;;;;;;;;;;;6.90;100.00;96816.28;5005683;28;20040;-89
2023/05/18 01:19:50;;;;;;;8.87;5.13;;;;;;;6.82;100.00;96814.28;5003217;28;20009;-89
2023/05/18 01:22:36;;;;;;;15.17;5.37;;;;;;;6.86;100.00;96815.69;5008581;28;20038;-91
2023/05/18 01:25:31;;;;;;;10.27;6.10;;;;;;;6.96;100.00;96810.56;5002084;28;20029;-91
2023/05/18 01:28:05;;;;;;;9.87;5.53;;;;;;;6.86;100.00;96807.84;5001856;28;20085;-91
2023/05/18 01:30:34;;;;;;;10.93;7.03;;;;;;;6.93;100.00;96813.41;5005003;28;20104;-92
2023/05/18 01:33:05;;;;;;;12.53;5.57;;;;;;;6.95;100.00;96809.75;5005952;28;20029;-91
2023/05/18 01:35:30;;;;;;;10.93;5.67;;;;;;;6.76;100.00;96810.34;5009767;28;20018;-91
2023/05/18 01:37:56;;;;;;;10.23;6.00;;;;;;;6.62;100.00;96813.25;4988095;28;20022;-91
2023/05/18 01:40:24;;;;;;;11.93;6.17;;;;;;;6.71;100.00;96814.31;5004272;28;20025;-91
2023/05/18 01:42:58;;;;;;;13.07;5.07;;;;;;;6.62;100.00;96813.25;5005738;28;20026;-91
2023/05/18 01:45:27;;;;;;;12.00;5.43;;;;;;;6.68;100.00;96810.16;4997488;28;20022;-91
2023/05/18 01:48:05;;;;;;;11.17;5.53;;;;;;;6.75;100.00;96806.09;5026561;28;20047;-92
2023/05/18 01:50:38;;;;;;;11.07;5.87;;;;;;;6.88;100.00;96802.50;5016384;28;20029;-92
2023/05/18 01:53:13;;;;;;;12.93;5.77;;;;;;;6.71;100.00;96803.84;5026493;28;20021;-91
2023/05/18 01:55:40;;;;;;;11.40;6.17;;;;;;;6.77;100.00;96803.34;5001023;28;20028;-91
2023/05/18 01:58:10;;;;;;;11.97;6.87;;;;;;;6.63;100.00;96798.38;4996582;28;21440;-91
2023/05/18 02:00:36;;;;;;;11.20;6.07;;;;;;;6.76;100.00;96799.91;5003356;28;20097;-92
2023/05/18 02:03:05;;;;;;;12.03;5.97;;;;;;;6.60;100.00;96799.44;4994528;28;20137;-91
2023/05/18 02:05:31;;;;;;;13.20;6.57;;;;;;;6.58;100.00;96801.38;4994276;28;20026;-91
2023/05/18 02:07:57;;;;;;;10.33;5.70;;;;;;;6.51;100.00;96798.41;5003823;28;20040;-91
2023/05/18 02:10:22;;;;;;;13.47;6.00;;;;;;;6.59;100.00;96797.78;5005364;28;20036;-91
2023/05/18 02:12:51;;;;;;;10.27;5.90;;;;;;;6.40;100.00;96795.78;4986716;28;20018;-91
2023/05/18 02:15:17;;;;;;;11.33;6.30;;;;;;;6.40;100.00;96789.72;4985054;28;20026;-91
2023/05/18 02:17:44;;;;;;;11.03;6.10;;;;;;;6.57;100.00;96784.88;5000066;28;20026;-91
2023/05/18 02:20:11;;;;;;;10.87;5.10;;;;;;;6.67;100.00;96784.13;4987817;28;20056;-91
2023/05/18 02:22:36;;;;;;;13.03;5.67;;;;;;;6.72;100.00;96788.03;5004736;28;20144;-91
2023/05/18 02:25:03;;;;;;;14.53;5.97;;;;;;;6.63;100.00;96786.13;5002692;28;20080;-91
2023/05/18 02:27:30;;;;;;;10.57;4.87;;;;;;;6.64;100.00;96790.44;4997944;28;20051;-91
2023/05/18 02:29:56;;;;;;;12.93;6.23;;;;;;;6.38;100.00;96795.09;5007186;28;20029;-91
2023/05/18 02:32:22;;;;;;;10.57;5.37;;;;;;;6.36;100.00;96796.97;5005277;28;21169;-91
2023/05/18 02:34:54;;;;;;;13.50;6.40;;;;;;;6.13;100.00;96785.69;5021263;28;20030;-91
2023/05/18 02:37:21;;;;;;;10.73;5.70;;;;;;;6.14;100.00;96797.81;5038091;28;20018;-91
2023/05/18 02:39:47;;;;;;;10.13;5.57;;;;;;;6.23;100.00;96791.88;5004379;28;20119;-91
2023/05/18 02:42:18;;;;;;;11.40;6.03;;;;;;;6.07;100.00;96796.59;4983737;28;20079;-91
2023/05/18 02:44:43;;;;;;;11.73;7.17;;;;;;;6.32;100.00;96791.16;4988210;28;20022;-91
2023/05/18 02:47:12;;;;;;;12.63;6.57;;;;;;;6.36;100.00;96786.53;5005407;28;20796;-91
2023/05/18 02:49:37;;;;;;;13.43;5.73;;;;;;;6.31;100.00;96784.28;4993273;28;20014;-91
2023/05/18 02:52:03;;;;;;;16.70;7.10;;;;;;;6.16;100.00;96776.78;5018847;28;20064;-91
2023/05/18 02:54:29;;;;;;;12.77;6.27;;;;;;;6.23;100.00;96781.41;5007465;28;21300;-91
2023/05/18 02:56:55;;;;;;;10.67;5.23;;;;;;;6.28;100.00;96768.84;5020873;28;21630;-91
2023/05/18 02:59:44;;;;;;;13.33;7.13;;;;;;;6.34;100.00;96772.78;5013362;28;20052;-91
2023/05/18 03:02:13;;;;;;;14.87;6.33;;;;;;;6.15;100.00;96778.59;5006519;28;20033;-91
2023/05/18 03:04:42;;;;;;;12.27;5.60;;;;;;;6.12;100.00;96769.19;4997654;28;20029;-91
2023/05/18 03:07:09;;;;;;;13.63;6.07;;;;;;;5.90;100.00;96775.22;4987468;28;20095;-91
2023/05/18 03:09:35;;;;;;;11.57;5.93;;;;;;;5.86;100.00;96776.38;5009189;28;20025;-91
2023/05/18 03:12:02;;;;;;;12.13;6.53;;;;;;;5.89;100.00;96773.53;5011689;28;20030;-91
2023/05/18 03:14:38;;;;;;;10.57;5.73;;;;;;;6.11;100.00;96767.53;4992431;28;20095;-91
2023/05/18 03:17:04;;;;;;;12.83;5.87;;;;;;;6.16;100.00;96763.75;4988291;28;20476;-91
2023/05/18 03:19:31;;;;;;;12.73;5.93;;;;;;;6.25;100.00;96766.47;4990012;28;20038;-91
2023/05/18 03:21:57;;;;;;;13.07;5.63;;;;;;;6.00;100.00;96775.38;5002049;28;20037;-91
2023/05/18 03:24:25;;;;;;;15.87;5.93;;;;;;;5.86;100.00;96772.94;4979887;28;20445;-91
2023/05/18 03:26:53;;;;;;;14.30;5.77;;;;;;;5.97;100.00;96769.53;5000944;28;20384;-91
2023/05/18 03:29:20;;;;;;;13.87;5.60;;;;;;;5.88;100.00;96777.09;5009528;28;20029;-91
2023/05/18 03:31:47;;;;;;;13.97;6.23;;;;;;;5.80;100.00;96779.47;5000911;28;20037;-91
2023/05/18 03:34:26;;;;;;;11.70;5.33;;;;;;;5.84;100.00;96773.06;4990674;28;20468;-91
2023/05/18 03:36:53;;;;;;;15.27;5.80;;;;;;;5.74;100.00;96777.31;5003144;28;20038;-91
2023/05/18 03:39:19;;;;;;;13.70;5.73;;;;;;;5.79;100.00;96771.75;5011309;28;20049;-91
2023/05/18 03:41:45;;;;;;;11.53;5.13;;;;;;;6.02;100.00;96777.88;4985909;28;20026;-91
2023/05/18 03:44:11;;;;;;;11.03;6.27;;;;;;;6.02;100.00;96776.06;4991150;28;20029;-91
2023/05/18 03:46:36;;;;;;;14.53;5.23;;;;;;;5.64;100.00;96776.34;4998172;28;20030;-91
2023/05/18 03:49:03;;;;;;;13.33;5.93;;;;;;;5.86;100.00;96775.56;4988646;28;20018;-91
2023/05/18 03:51:35;;;;;;;10.00;4.90;;;;;;;5.99;100.00;96775.47;4990886;28;20491;-90
2023/05/18 03:54:01;;;;;;;13.47;5.50;;;;;;;5.83;100.00;96774.00;4996791;28;20038;-91
2023/05/18 03:56:29;;;;;;;9.90;5.47;;;;;;;5.88;100.00;96774.50;4997410;28;20033;-91
2023/05/18 03:58:57;;;;;;;15.50;5.53;;;;;;;5.94;100.00;96775.84;4998431;28;20120;-91
2023/05/18 04:01:29;;;;;;;17.00;6.37;;;;;;;6.03;100.00;96784.75;4990016;28;20042;-91
2023/05/18 04:03:55;;;;;;;14.93;5.10;;;;;;;6.02;100.00;96780.47;4981388;28;20061;-91
2023/05/18 04:06:22;;;;;;;12.17;4.87;;;;;;;6.10;100.00;96772.88;4997620;28;20025;-91
2023/05/18 04:08:48;;;;;;;13.43;6.03;;;;;;;6.10;100.00;96781.56;4999270;28;20026;-91
2023/05/18 04:11:14;;;;;;;10.33;5.80;;;;;;;6.10;100.00;96783.31;5003699;28;20064;-91
2023/05/18 04:13:40;;;;;;;13.57;6.07;;;;;;;6.10;100.00;96778.09;4989528;28;20028;-91
2023/05/18 04:16:06;;;;;;;12.07;5.43;;;;;;;6.00;100.00;96780.59;4984661;28;20018;-91
2023/05/18 04:18:32;;;;;;;11.47;6.40;;;;;;;6.00;100.00;96783.22;4995223;28;20018;-91
2023/05/18 04:20:59;;;;;;;17.67;7.47;;;;;;;6.16;100.00;96780.22;5000759;28;20060;-91
2023/05/18 04:23:25;;;;;;;13.10;5.33;;;;;;;6.33;100.00;96782.38;4979001;28;20057;-91
2023/05/18 04:25:51;;;;;;;12.93;4.80;;;;;;;6.12;100.00;96790.09;4985499;28;20022;-91
2023/05/18 04:28:18;;;;;;;8.67;4.17;;;;;;;6.13;100.00;96781.28;4986823;28;20030;-91
2023/05/18 04:30:44;;;;;;;10.20;4.77;;;;;;;6.48;100.00;96793.41;5000281;28;20026;-91
2023/05/18 04:33:11;;;;;;;13.07;5.20;;;;;;;6.19;100.00;96793.06;4999909;28;20033;-91
2023/05/18 04:35:37;;;;;;;9.33;4.50;;;;;;;6.51;100.00;96785.34;4994635;28;20026;-91
2023/05/18 04:38:04;;;;;;;16.37;5.40;;;;;;;6.07;100.00;96796.59;4991159;28;20030;-91
2023/05/18 04:40:32;;;;;;;8.93;4.60;;;;;;;6.34;100.00;96789.28;4996640;28;20113;-90
2023/05/18 04:42:59;;;;;;;14.43;5.13;;;;;;;6.30;100.00;96792.22;4996668;28;20084;-90
2023/05/18 04:45:27;;;;;;;12.67;4.77;;;;;;;6.42;100.00;96795.69;4996905;28;20026;-90
2023/05/18 04:47:55;;;;;;;11.63;5.70;;;;;;;6.38;100.00;96795.09;4980521;28;20014;-91
2023/05/18 04:50:24;;;;;;;12.80;5.07;;;;;;;6.55;100.00;96794.59;4993496;28;20022;-91
2023/05/18 04:52:51;;;;;;;11.23;4.27;;;;;;;6.57;100.00;96800.53;5005228;28;20112;-90
2023/05/18 04:55:26;;;;;;;16.60;5.13;;;;;;;6.92;100.00;96793.47;5005331;28;20480;-90
2023/05/18 04:57:55;;;;;;;11.00;5.60;;;;;;;6.58;100.00;96806.59;4980758;28;20026;-90
2023/05/18 05:00:25;;;;;;;10.63;4.80;;;;;;;6.59;100.00;96808.25;4991854;28;20057;-90
2023/05/18 05:02:51;;;;;;;7.60;4.17;;;;;;;6.98;100.00;96806.06;5000045;28;20037;-91
2023/05/18 05:05:17;;;;;;;13.10;5.30;;;;;;;7.05;100.00;96804.59;4993616;28;20038;-90
2023/05/18 05:07:43;;;;;;;14.07;5.33;;;;;;;7.23;100.00;96808.34;4990177;28;20026;-90
2023/05/18 05:10:09;;;;;;;12.80;4.23;;;;;;;7.08;100.00;96799.97;5002684;28;20040;-91
2023/05/18 05:12:40;;;;;;;12.90;4.70;;;;;;;7.27;100.00;96808.91;4991065;28;20026;-91
2023/05/18 05:15:06;;;;;;;15.20;5.73;;;;;;;7.57;100.00;96801.16;4985650;28;20030;-91
2023/05/18 05:17:31;;;;;;;9.03;4.10;;;;;;;7.64;100.00;96796.25;4980773;28;20094;-91
2023/05/18 05:19:57;;;;;;;13.27;4.67;;;;;;;8.00;100.00;96797.59;4988586;28;20018;-91
2023/05/18 05:22:23;;;;;;;12.97;4.30;;;;;;;7.77;100.00;96799.50;4985372;28;20026;-91
2023/05/18 05:24:50;;;;;;;9.13;4.47;;;;;;;8.08;100.00;96791.72;5005527;28;20079;-91
2023/05/18 05:27:22;;;;;;;11.43;4.10;;;;;;;7.79;100.00;96794.16;4998500;28;20449;-91
2023/05/18 05:29:49;;;;;;;12.17;3.60;;;;;;;8.04;100.00;96777.22;4980491;28;20038;-91
2023/05/18 05:32:15;;;;;;;9.77;4.23;;;;;;;8.04;100.00;96783.28;4980780;28;20030;-90
2023/05/18 05:34:45;;;;;;;9.73;4.13;;;;;;;8.64;100.00;96788.66;4986075;28;20089;-91
2023/05/18 05:37:11;;;;;;;10.07;4.00;;;;;;;9.02;100.00;96787.09;4995667;28;20028;-85
2023/05/18 05:42:37;;;;;;;10.60;3.70;;;;;;;9.50;100.00;96791.53;5012295;28;20026;-90
2023/05/18 05:45:06;;;;;;;15.67;4.17;;;;;;;8.84;100.00;96792.16;4999306;28;20037;-93
2023/05/18 05:47:37;;;;;;;16.93;7.40;;;;;;;9.13;100.00;96794.03;4994060;28;20468;-90
2023/05/18 05:50:04;;;;;;;12.60;5.00;;;;;;;9.77;100.00;96787.38;4997792;28;20036;-91
2023/05/18 05:52:30;;;;;;;11.97;5.87;;;;;;;9.65;100.00;96792.75;4989707;28;20037;-91
2023/05/18 05:54:56;;;;;;;10.73;3.90;;;;;;;9.39;100.00;96789.06;4989450;28;20407;-90
2023/05/18 05:57:22;;;;;;;9.83;4.10;;;;;;;10.21;100.00;96787.69;4978541;28;20033;-87
2023/05/18 05:59:48;;;;;;;13.47;5.17;;;;;;;10.64;100.00;96794.19;4981552;28;20031;-87
2023/05/18 06:02:13;;;;;;;13.13;7.57;;;;;;;10.65;100.00;96783.50;4989010;28;20543;-87
2023/05/18 06:04:45;;;;;;;17.10;7.10;;;;;;;11.05;100.00;96784.97;4992649;28;20038;-86
2023/05/18 06:07:11;;;;;;;9.50;3.40;;;;;;;10.44;100.00;96790.81;4989176;28;20474;-88
2023/05/18 06:09:37;;;;;;;16.40;6.10;;;;;;;11.14;100.00;96781.44;4976367;28;20112;-84
2023/05/18 06:12:03;;;;;;;16.47;7.03;;;;;;;11.22;100.00;96780.69;4968718;28;20395;-83
2023/05/18 06:14:29;;;;;;;17.70;5.83;;;;;;;11.26;100.00;96784.66;4975775;28;20121;-83
2023/05/18 06:16:56;;;;;;;17.20;9.00;;;;;;;11.24;100.00;96784.00;4995380;28;20038;-92
2023/05/18 06:19:21;;;;;;;18.40;9.90;;;;;;;11.45;100.00;96795.06;4999388;28;20045;-89
2023/05/18 06:21:48;;;;;;;17.53;6.13;;;;;;;11.82;100.00;96793.22;4989226;28;20098;-89
2023/05/18 06:24:13;;;;;;;9.83;3.60;;;;;;;11.29;100.00;96797.53;5001968;28;20065;-90
2023/05/18 06:26:44;;;;;;;15.87;3.33;;;;;;;11.23;100.00;96800.75;5006662;28;20101;-89
2023/05/18 06:29:25;;;;;;;9.93;3.23;;;;;;;11.59;100.00;96801.59;4981081;28;20508;-89
2023/05/18 06:32:03;;;;;;;8.63;3.30;;;;;;;11.76;100.00;96789.38;4974938;28;20021;-89
2023/05/18 06:34:38;;;;;;;8.07;2.57;;;;;;;12.10;100.00;96784.22;4981776;28;20022;-90
2023/05/18 06:37:04;;;;;;;8.50;2.93;;;;;;;12.98;100.00;96783.97;5007633;28;20083;-88
2023/05/18 06:39:30;;;;;;;11.57;3.43;;;;;;;13.16;100.00;96786.50;5006181;28;20017;-89
2023/05/18 06:41:55;;;;;;;10.80;3.30;;;;;;;13.33;100.00;96780.28;4989834;28;20026;-89
2023/05/18 06:44:24;;;;;;;10.10;3.57;;;;;;;13.48;100.00;96784.91;4981777;28;20037;-90
2023/05/18 06:47:08;;;;;;;10.97;3.70;;;;;;;14.43;100.00;96777.25;5000846;28;20064;-90
2023/05/18 06:49:34;;;;;;;8.90;2.97;;;;;;;14.57;100.00;96779.22;4988201;28;20054;-91
2023/05/18 06:52:00;;;;;;;8.73;2.87;;;;;;;14.98;100.00;96779.03;4969405;28;20025;-89
2023/05/18 06:54:25;;;;;;;11.67;2.70;;;;;;;15.06;100.00;96777.19;4995376;28;20407;-89
2023/05/18 06:56:51;;;;;;;10.27;2.97;;;;;;;15.22;100.00;96778.06;4972916;28;20022;-89
2023/05/18 06:59:16;;;;;;;12.30;2.93;;;;;;;15.21;100.00;96779.91;4992975;28;20034;-90
2023/05/18 07:01:42;;;;;;;12.50;3.63;;;;;;;15.36;100.00;96773.84;4995430;28;20491;-90
2023/05/18 07:04:08;;;;;;;8.63;2.30;;;;;;;15.04;100.00;96778.34;4990864;28;20030;-89
2023/05/18 07:06:35;;;;;;;8.73;2.73;;;;;;;15.70;99.92;96779.59;4988862;28;20093;-90
2023/05/18 07:09:02;;;;;;;8.33;2.97;;;;;;;16.89;96.84;96782.41;4978915;28;20097;-89
2023/05/18 07:11:28;;;;;;;9.30;2.70;;;;;;;16.01;96.99;96789.28;4984612;28;20030;-90
2023/05/18 07:13:53;;;;;;;9.03;2.73;;;;;;;15.69;99.28;96787.72;5013067;28;20025;-90
2023/05/18 07:16:19;;;;;;;10.67;2.63;;;;;;;16.11;96.53;96797.81;4986653;28;20104;-90
2023/05/18 07:18:45;;;;;;;8.03;2.57;;;;;;;15.93;97.92;96799.97;4994859;28;20026;-90
2023/05/18 07:21:11;;;;;;;8.60;2.77;;;;;;;15.37;97.75;96802.00;5005470;28;20468;-90
2023/05/18 07:23:36;;;;;;;8.20;2.97;;;;;;;15.44;99.10;96802.94;4998663;28;20121;-90
2023/05/18 07:26:02;;;;;;;12.97;4.00;;;;;;;15.56;95.70;96801.56;4979984;28;20105;-90
2023/05/18 07:28:27;;;;;;;10.87;2.60;;;;;;;16.88;93.42;96788.72;4996282;28;20018;-90
2023/05/18 07:30:53;;;;;;;12.23;2.67;;;;;;;16.39;92.73;96791.91;4996041;28;20480;-90
2023/05/18 07:33:18;;;;;;;14.53;3.17;;;;;;;16.47;88.78;96784.69;4996445;28;20036;-91
2023/05/18 07:35:45;;;;;;;10.17;3.20;;;;;;;17.06;87.05;96786.47;5009474;28;20022;-90
2023/05/18 07:38:11;;;;;;;11.90;2.47;;;;;;;17.37;82.70;96798.69;5005137;28;20026;-90
2023/05/18 07:40:37;;;;;;;9.60;2.93;;;;;;;16.91;90.03;96788.34;4987630;28;20037;-90
2023/05/18 07:43:03;;;;;;;11.83;2.90;;;;;;;17.84;79.02;96790.22;4976094;28;20437;-90
2023/05/18 07:45:28;;;;;;;11.20;2.67;;;;;;;18.54;81.49;96783.16;4996721;28;20087;-90
2023/05/18 07:47:56;;;;;;;8.45;2.30;;;;;;;18.91;75.70;96781.09;4981186;28;20982;-90
2023/05/18 07:50:22;;;;;;;10.73;2.80;;;;;;;19.04;69.28;96775.81;5007468;28;20064;-90
2023/05/18 07:52:48;;;;;;;11.15;3.42;;;;;;;18.60;72.88;96777.03;5003331;28;20021;-90
2023/05/18 07:55:15;;;;;;;13.40;3.03;;;;;;;19.27;68.38;96778.16;4988589;28;20084;-90
2023/05/18 07:57:41;;;;;;;8.88;2.75;;;;;;;18.72;69.66;96776.53;4998472;28;20100;-90
2023/05/18 08:00:08;;;;;;;18.00;8.10;;;;;;;18.11;76.80;96780.59;4996037;28;20400;-90
2023/05/18 08:02:39;;;;;;;9.38;2.95;;;;;;;18.75;73.86;96782.28;4999863;28;20425;-90
2023/05/18 08:05:05;;;;;;;14.10;3.63;;;;;;;19.03;69.82;96774.19;5001557;28;20025;-90
2023/05/18 08:07:31;;;;;;;7.30;2.42;;;;;;;18.32;76.11;96765.59;4982921;28;20038;-90
2023/05/18 08:09:57;;;;;;;9.00;2.70;;;;;;;19.07;65.13;96763.94;4985113;28;20392;-90
2023/05/18 08:12:23;;;;;;;10.93;3.17;;;;;;;18.82;66.14;96764.47;4992181;28;20026;-90
2023/05/18 08:14:49;;;;;;;11.52;3.75;;;;;;;18.06;69.59;96766.22;4986933;28;20022;-90
2023/05/18 08:17:14;;;;;;;12.05;3.40;;;;;;;18.70;71.76;96767.84;4990407;28;20157;-90
2023/05/18 08:19:40;;;;;;;11.05;3.80;;;;;;;18.91;73.13;96765.09;4985832;28;20026;-90
2023/05/18 08:22:10;;;;;;;9.65;3.42;;;;;;;19.52;62.47;96751.78;4980384;28;20025;-90
2023/05/18 08:24:35;;;;;;;8.02;3.10;;;;;;;20.33;58.85;96758.78;4983435;28;20025;-91
2023/05/18 08:27:02;;;;;;;10.02;3.33;;;;;;;20.10;62.15;96750.41;4973921;28;20022;-91
2023/05/18 08:29:27;;;;;;;9.80;3.80;;;;;;;20.32;54.81;96754.47;5001600;28;20034;-90
2023/05/18 08:31:54;;;;;;;10.82;3.92;;;;;;;19.68;63.01;96755.09;4987784;28;20056;-90
2023/05/18 08:34:20;;;;;;;10.25;3.95;;;;;;;19.40;63.80;96755.22;5014936;28;20125;-90
2023/05/18 08:36:46;;;;;;;10.95;3.58;;;;;;;18.59;68.55;96755.91;4989831;28;20037;-91
2023/05/18 08:39:11;;;;;;;11.57;2.97;;;;;;;20.39;60.00;96746.47;4988865;28;20022;-90
2023/05/18 08:42:15;;;;;;;8.40;2.67;;;;;;;20.28;58.27;96752.41;4990944;28;20036;-91
2023/05/18 08:45:12;;;;;;;9.73;3.47;;;;;;;19.66;61.51;96763.31;4990722;28;20042;-90
2023/05/18 08:47:37;;;;;;;10.35;3.25;;;;;;;19.06;64.47;96768.47;4990402;28;20022;-88
2023/05/18 08:50:04;;;;;;;10.07;2.97;;;;;;;19.10;61.49;96765.41;4994471;28;20038;-88
2023/05/18 08:52:35;;;;;;;9.05;3.72;;;;;;;17.87;69.84;96773.88;4984773;28;20025;-88
2023/05/18 08:55:05;;;;;;;10.40;3.33;;;;;;;18.41;60.29;96764.44;4998671;28;20036;-90
2023/05/18 08:57:34;;;;;;;9.38;2.88;;;;;;;17.70;66.93;96769.78;4985929;28;20475;-90
2023/05/18 09:00:01;;;;;;;9.77;3.40;;;;;;;18.50;63.46;96754.44;4993272;28;20022;-91
2023/05/18 09:02:28;;;;;;;12.30;3.67;;;;;;;18.50;67.74;96749.09;5000759;28;20084;-90
2023/05/18 09:04:55;;;;;;;16.23;4.20;;;;;;;19.57;61.61;96745.81;4967370;28;20113;-90
2023/05/18 09:07:31;;;;;;;8.88;2.85;;;;;;;19.39;61.04;96745.59;4981303;28;20057;-93
2023/05/18 09:09:57;;;;;;;9.27;2.50;;;;;;;19.73;56.15;96731.31;4988869;28;20444;-93
2023/05/18 09:12:24;;;;;;;14.02;3.83;;;;;;;19.15;60.10;96758.47;4980128;28;20026;-93
2023/05/18 09:14:50;;;;;;;7.80;2.78;;;;;;;18.84;54.93;96756.25;4979297;28;20014;-90
2023/05/18 09:17:16;;;;;;;10.88;3.40;;;;;;;18.66;61.23;96753.28;4992160;28;20381;-91
2023/05/18 09:19:41;;;;;;;10.80;3.30;;;;;;;19.97;55.27;96735.19;4982278;28;20068;-90
2023/05/18 09:22:07;;;;;;;13.82;2.92;;;;;;;20.62;52.61;96744.19;4982008;28;20022;-90
2023/05/18 09:24:33;;;;;;;11.15;3.63;;;;;;;20.45;48.64;96743.75;4986092;28;20083;-91
2023/05/18 09:26:59;;;;;;;7.95;3.22;;;;;;;19.62;52.14;96754.03;4982835;28;20032;-92
2023/05/18 09:29:25;;;;;;;9.10;3.45;;;;;;;17.61;65.82;96758.47;4994340;28;20022;-91
2023/05/18 09:31:52;;;;;;;9.93;2.70;;;;;;;19.41;58.54;96748.88;4994233;28;20023;-92
2023/05/18 09:34:20;;;;;;;10.75;3.47;;;;;;;20.38;53.70;96740.28;4990796;28;20026;-90
2023/05/18 09:36:48;;;;;;;8.50;3.47;;;;;;;19.27;54.32;96750.69;4991965;28;20033;-92
2023/05/18 09:39:14;;;;;;;10.23;3.42;;;;;;;19.33;55.04;96741.06;5001749;28;20026;-91
2023/05/18 09:41:40;;;;;;;11.40;2.85;;;;;;;20.73;49.99;96737.34;4988438;28;20032;-91
2023/05/18 09:44:11;;;;;;;8.75;3.08;;;;;;;21.01;48.95;96738.88;5003287;28;20029;-93
2023/05/18 09:46:40;;;;;;;8.32;2.88;;;;;;;19.70;53.29;96745.03;5017885;28;20072;-93
2023/05/18 09:49:09;;;;;;;11.98;4.20;;;;;;;20.34;52.94;96733.72;4997161;28;20015;-92
2023/05/18 09:51:36;;;;;;;12.05;3.88;;;;;;;20.70;47.99;96733.25;4984509;28;20022;-93
2023/05/18 09:54:05;;;;;;;8.27;3.15;;;;;;;21.55;47.06;96730.38;4988225;28;20069;-93
2023/05/18 09:56:34;;;;;;;9.45;2.85;;;;;;;20.19;51.54;96728.63;5000137;28;20055;-93
2023/05/18 09:59:14;;;;;;;9.18;3.10;;;;;;;21.56;46.12;96734.69;5006760;28;20021;-93
2023/05/18 10:01:56;;;;;;;8.18;3.00;;;;;;;21.67;45.71;96721.66;4987904;28;20026;-93
2023/05/18 10:04:34;;;;;;;13.65;3.08;;;;;;;21.48;45.96;96731.47;4999991;28;20045;-92
2023/05/18 10:07:12;;;;;;;10.35;2.88;;;;;;;21.54;44.64;96731.41;4995174;28;20037;-92
2023/05/18 10:09:43;;;;;;;7.28;2.70;;;;;;;20.77;49.53;96730.53;4982563;28;20022;-93
2023/05/18 10:12:21;;;;;;;8.07;2.70;;;;;;;20.99;49.34;96733.72;4986424;28;20062;-93
2023/05/18 10:14:48;;;;;;;11.10;3.60;;;;;;;19.62;54.83;96734.56;4999119;28;20036;-92
2023/05/18 10:17:15;;;;;;;12.02;5.35;;;;;;;20.64;51.89;96726.06;4997208;28;20033;-92
2023/05/18 10:19:42;;;;;;;10.32;3.67;;;;;;;21.21;50.19;96726.22;4978763;28;20030;-93
2023/05/18 10:22:09;;;;;;;8.57;3.17;;;;;;;20.94;49.51;96723.69;4989382;28;20637;-92
2023/05/18 10:28:43;;;;;;;10.30;2.78;;;;;;;20.61;52.01;96717.66;5016034;28;20040;-94
2023/05/18 10:34:35;;;;;;;8.65;2.65;;;;;;;19.80;56.90;96734.78;5015306;28;20038;-95
2023/05/18 10:37:05;;;;;;;11.07;3.40;;;;;;;19.92;53.49;96725.16;4995362;28;20022;-89
2023/05/18 10:39:34;;;;;;;10.45;3.10;;;;;;;21.17;49.83;96719.66;4996180;28;20045;-87
2023/05/18 10:42:01;;;;;;;12.13;2.90;;;;;;;22.40;45.76;96712.97;4983262;28;20034;-91
2023/05/18 10:44:27;;;;;;;10.90;3.40;;;;;;;21.82;43.14;96714.94;4990315;28;20030;-91
2023/05/18 10:46:53;;;;;;;9.82;4.28;;;;;;;22.11;46.58;96718.81;5002733;28;20018;-91
2023/05/18 10:49:23;;;;;;;8.45;2.75;;;;;;;21.62;45.47;96716.94;5021421;28;20045;-91
2023/05/18 10:51:55;;;;;;;7.72;2.50;;;;;;;20.58;45.86;96710.03;4989823;28;20006;-92
2023/05/18 10:54:24;;;;;;;8.70;2.90;;;;;;;20.21;45.64;96707.03;5011241;28;20014;-90
2023/05/18 10:56:52;;;;;;;9.63;2.70;;;;;;;20.34;50.14;96714.19;4972434;28;20072;-94
2023/05/18 10:59:19;;;;;;;9.88;3.33;;;;;;;20.89;46.23;96709.31;4965888;28;20030;-94
2023/05/18 11:01:50;;;;;;;7.18;2.55;;;;;;;22.73;41.30;96694.66;4971719;28;20053;-87
2023/05/18 11:04:22;;;;;;;8.32;2.65;;;;;;;21.39;42.29;96696.94;4993508;28;20037;-87
2023/05/18 11:06:58;;;;;;;10.07;2.60;;;;;;;20.25;51.17;96710.91;5015335;28;20042;-90
2023/05/18 11:09:25;;;;;;;9.98;2.75;;;;;;;20.84;43.90;96719.81;4998379;28;20026;-90
2023/05/18 11:11:55;;;;;;;11.27;2.55;;;;;;;21.69;42.64;96703.50;5000131;28;20048;-89
2023/05/18 11:14:49;;;;;;;8.82;2.75;;;;;;;20.75;43.50;96708.53;5000420;28;20029;-91
2023/05/18 11:17:24;;;;;;;8.80;2.65;;;;;;;21.37;42.58;96696.31;4983817;28;20038;-91
2023/05/18 11:20:06;;;;;;;8.05;2.67;;;;;;;21.92;39.33;96695.69;5004199;28;20026;-91
2023/05/18 11:22:47;;;;;;;6.13;2.40;;;;;;;21.07;42.80;96713.97;5002564;28;20036;-91
2023/05/18 11:25:31;;;;;;;9.65;2.88;;;;;;;20.84;42.45;96714.47;4997742;28;20034;-91
2023/05/18 11:28:09;;;;;;;13.95;4.57;;;;;;;21.72;40.63;96697.72;4995867;28;20078;-92
2023/05/18 11:30:35;;;;;;;15.07;5.57;;;;;;;21.64;41.10;96706.84;4988549;28;20089;-91
2023/05/18 11:33:23;;;;;;;12.65;5.18;;;;;;;21.71;39.15;96702.25;4991599;28;20037;-91
2023/05/18 11:36:10;;;;;;;8.27;3.35;;;;;;;21.31;41.03;96697.16;4997569;28;20030;-91
2023/05/18 11:38:51;;;;;;;6.78;2.30;;;;;;;21.21;39.44;96704.84;4997332;28;20543;-91
2023/05/18 11:41:28;;;;;;;8.63;2.75;;;;;;;20.15;43.59;96702.50;4981970;28;20030;-91
2023/05/18 11:44:19;;;;;;;11.40;3.25;;;;;;;20.58;42.53;96702.03;4997288;28;20048;-91